Portada
METAR-TAF:

METAR-TAF

Aeroports :

Belgrad, Sèrbia

latitud: 44-49N, longitud: 020-17E, altitud: 96 m

Observació

L'informe es va fer fa 31 minuts, a les 05:30 UTC
Vent 9 kt del Est
Temperatura 4°C
Humitat 87%
Pressió 1012 hPa
Visibilitat 10 km o més
sense núvols per sota de 1500 mi sense presència de cumulonimbus.

METAR: LYBE 200530Z 09009KT CAVOK 04/02 Q1012 NOSIG

Hora: 07:01 (06:01 UTC)

Pronòstic

L'informe es va fer fa 1 hora i 1 minuts, a les 05:00 UTC
Pronòstic vàlid del 20 a les 06 UTC al 21 a les 06 UTC
Vent 9 kt del Est
Visibilitat 10 km o més
Núvols disperses a una alçada de 4000 ft
Temporalment
l' 20 a les 07 UTC al 20 a les 09 UTC
pluja
Evolucionant progressivament
l' 20 a les 08 UTC al 20 a les 10 UTC
Vent 20 kt del Sud-Est amb ràfegues de 30 kt

TAF: LYBE 200500Z 2006/2106 10009KT 9999 SCT040 TX06/2012Z TN02/2106Z TEMPO 2007/2009 RA BECMG 2008/2010 13020G30KT

Observacions i pronòstics meteorològics de més de 4000 aeroports (METAR i TAF).

Les estacions disponibles són els punts grocs i vermells al mapa.

Posi el ratolí al punt desitjat per veure el nom de l'estació.

Feu clic per veure les observacions i els pronòstics meteorològics.

Per canviar el mapa: feu clic els botons verds amb una creu de color negre per apropar; al botó verd amb un guió per allunyar la imatge; o en les fletxes verdes per a mapes adjacents.


METAR-TAF: